Terminal Aerodrome Forecast
Issued by NWS Wichita, KS

Home | Current Version | Previous Version | Text Only | Print | Product List | Glossary Off
Versions: 1 2 3 4 5 6 7 8 9 10 11 12 13 14 15 16 17

000
FTUS43 KICT 211136
TAFICT
TAF
KICT 211136Z 2112/2212 18015KT P6SM BKN080
     FM211900 19015G23KT P6SM BKN080
     FM220200 21011KT P6SM BKN035
     FM220800 27014KT P6SM BKN025
     FM220900 27016G24KT P6SM BKN015=

USA.gov is the U.S. government's official web portal to all federal, state and local government web resources and services.